sensor_id;sensor_type;location;lat;lon;timestamp;pressure;altitude;pressure_sealevel;temperature;humidity
13661;BME280;6903;49.480;11.102;2023-03-19T00:01:41;97571.25;;;9.16;100.00
13661;BME280;6903;49.480;11.102;2023-03-19T00:04:07;97577.94;;;9.20;100.00
13661;BME280;6903;49.480;11.102;2023-03-19T00:06:32;97569.22;;;9.19;100.00
13661;BME280;6903;49.480;11.102;2023-03-19T00:08:58;97570.16;;;9.18;100.00
13661;BME280;6903;49.480;11.102;2023-03-19T00:11:23;97575.66;;;9.15;100.00
13661;BME280;6903;49.480;11.102;2023-03-19T00:13:49;97571.63;;;9.11;100.00
13661;BME280;6903;49.480;11.102;2023-03-19T00:16:14;97574.97;;;9.13;100.00
13661;BME280;6903;49.480;11.102;2023-03-19T00:18:39;97565.66;;;9.09;100.00
13661;BME280;6903;49.480;11.102;2023-03-19T00:21:05;97568.53;;;9.06;100.00
13661;BME280;6903;49.480;11.102;2023-03-19T00:23:30;97563.50;;;9.03;100.00
13661;BME280;6903;49.480;11.102;2023-03-19T00:25:56;97567.06;;;9.02;100.00
13661;BME280;6903;49.480;11.102;2023-03-19T00:28:21;97560.28;;;9.00;100.00
13661;BME280;6903;49.480;11.102;2023-03-19T00:30:46;97569.22;;;8.97;100.00
13661;BME280;6903;49.480;11.102;2023-03-19T00:33:12;97557.19;;;8.95;100.00
13661;BME280;6903;49.480;11.102;2023-03-19T00:35:38;97558.41;;;8.91;100.00
13661;BME280;6903;49.480;11.102;2023-03-19T00:38:04;97559.44;;;8.88;100.00
13661;BME280;6903;49.480;11.102;2023-03-19T00:40:30;97569.13;;;8.88;100.00
13661;BME280;6903;49.480;11.102;2023-03-19T00:42:56;97569.00;;;8.89;100.00
13661;BME280;6903;49.480;11.102;2023-03-19T00:45:21;97571.53;;;8.91;100.00
13661;BME280;6903;49.480;11.102;2023-03-19T00:47:46;97575.09;;;8.90;100.00
13661;BME280;6903;49.480;11.102;2023-03-19T00:50:11;97574.63;;;8.85;100.00
13661;BME280;6903;49.480;11.102;2023-03-19T00:52:37;97583.38;;;8.74;100.00
13661;BME280;6903;49.480;11.102;2023-03-19T00:55:02;97578.59;;;8.68;100.00
13661;BME280;6903;49.480;11.102;2023-03-19T00:57:28;97580.97;;;8.60;100.00
13661;BME280;6903;49.480;11.102;2023-03-19T00:59:53;97581.31;;;8.55;100.00
13661;BME280;6903;49.480;11.102;2023-03-19T01:02:18;97585.16;;;8.51;100.00
13661;BME280;6903;49.480;11.102;2023-03-19T01:04:47;97584.53;;;8.48;100.00
13661;BME280;6903;49.480;11.102;2023-03-19T01:07:13;97585.75;;;8.44;100.00
13661;BME280;6903;49.480;11.102;2023-03-19T01:09:38;97587.66;;;8.42;100.00
13661;BME280;6903;49.480;11.102;2023-03-19T01:12:03;97582.28;;;8.43;100.00
13661;BME280;6903;49.480;11.102;2023-03-19T01:14:30;97585.03;;;8.42;100.00
13661;BME280;6903;49.480;11.102;2023-03-19T01:16:55;97586.06;;;8.39;100.00
13661;BME280;6903;49.480;11.102;2023-03-19T01:19:21;97581.91;;;8.37;100.00
13661;BME280;6903;49.480;11.102;2023-03-19T01:21:47;97590.63;;;8.37;100.00
13661;BME280;6903;49.480;11.102;2023-03-19T01:24:14;97594.31;;;8.35;100.00
13661;BME280;6903;49.480;11.102;2023-03-19T01:26:39;97595.16;;;8.35;100.00
13661;BME280;6903;49.480;11.102;2023-03-19T01:29:05;97593.69;;;8.31;100.00
13661;BME280;6903;49.480;11.102;2023-03-19T01:31:30;97595.03;;;8.26;100.00
13661;BME280;6903;49.480;11.102;2023-03-19T01:33:55;97591.88;;;8.21;100.00
13661;BME280;6903;49.480;11.102;2023-03-19T01:36:20;97592.09;;;8.18;100.00
13661;BME280;6903;49.480;11.102;2023-03-19T01:38:46;97594.13;;;8.14;100.00
13661;BME280;6903;49.480;11.102;2023-03-19T01:41:11;97589.34;;;8.08;100.00
13661;BME280;6903;49.480;11.102;2023-03-19T01:43:37;97593.00;;;8.06;100.00
13661;BME280;6903;49.480;11.102;2023-03-19T01:46:13;97584.31;;;8.05;100.00
13661;BME280;6903;49.480;11.102;2023-03-19T01:48:54;97585.38;;;8.03;100.00
13661;BME280;6903;49.480;11.102;2023-03-19T01:51:25;97582.97;;;8.00;100.00
13661;BME280;6903;49.480;11.102;2023-03-19T01:53:55;97583.44;;;7.94;100.00
13661;BME280;6903;49.480;11.102;2023-03-19T01:56:34;97580.31;;;7.89;100.00
13661;BME280;6903;49.480;11.102;2023-03-19T01:59:03;97581.59;;;7.83;100.00
13661;BME280;6903;49.480;11.102;2023-03-19T02:01:33;97574.94;;;7.79;100.00
13661;BME280;6903;49.480;11.102;2023-03-19T02:04:02;97560.97;;;7.79;100.00
13661;BME280;6903;49.480;11.102;2023-03-19T02:06:28;97568.84;;;7.79;100.00
13661;BME280;6903;49.480;11.102;2023-03-19T02:08:55;97570.03;;;7.75;100.00
13661;BME280;6903;49.480;11.102;2023-03-19T02:11:21;97565.94;;;7.71;100.00
13661;BME280;6903;49.480;11.102;2023-03-19T02:13:47;97572.25;;;7.68;100.00
13661;BME280;6903;49.480;11.102;2023-03-19T02:16:13;97569.53;;;7.70;100.00
13661;BME280;6903;49.480;11.102;2023-03-19T02:18:39;97570.22;;;7.72;100.00
13661;BME280;6903;49.480;11.102;2023-03-19T02:21:10;97566.16;;;7.68;100.00
13661;BME280;6903;49.480;11.102;2023-03-19T02:26:17;97571.16;;;7.60;100.00
13661;BME280;6903;49.480;11.102;2023-03-19T02:28:45;97572.41;;;7.54;100.00
13661;BME280;6903;49.480;11.102;2023-03-19T02:31:12;97568.88;;;7.55;100.00
13661;BME280;6903;49.480;11.102;2023-03-19T02:33:38;97571.50;;;7.55;100.00
13661;BME280;6903;49.480;11.102;2023-03-19T02:36:05;97568.97;;;7.54;100.00
13661;BME280;6903;49.480;11.102;2023-03-19T02:38:33;97569.91;;;7.53;100.00
13661;BME280;6903;49.480;11.102;2023-03-19T02:41:02;97572.88;;;7.48;100.00
13661;BME280;6903;49.480;11.102;2023-03-19T02:43:29;97574.66;;;7.48;100.00
13661;BME280;6903;49.480;11.102;2023-03-19T02:45:55;97588.84;;;7.45;100.00
13661;BME280;6903;49.480;11.102;2023-03-19T02:48:21;97580.34;;;7.42;100.00
13661;BME280;6903;49.480;11.102;2023-03-19T02:50:46;97585.09;;;7.37;100.00
13661;BME280;6903;49.480;11.102;2023-03-19T02:53:12;97579.13;;;7.35;100.00
13661;BME280;6903;49.480;11.102;2023-03-19T02:55:37;97591.53;;;7.33;100.00
13661;BME280;6903;49.480;11.102;2023-03-19T02:58:02;97589.00;;;7.31;100.00
13661;BME280;6903;49.480;11.102;2023-03-19T03:00:28;97590.69;;;7.32;100.00
13661;BME280;6903;49.480;11.102;2023-03-19T03:02:56;97602.13;;;7.31;100.00
13661;BME280;6903;49.480;11.102;2023-03-19T03:05:22;97610.81;;;7.32;100.00
13661;BME280;6903;49.480;11.102;2023-03-19T03:07:47;97604.31;;;7.37;100.00
13661;BME280;6903;49.480;11.102;2023-03-19T03:10:14;97602.41;;;7.39;100.00
13661;BME280;6903;49.480;11.102;2023-03-19T03:12:39;97603.97;;;7.42;100.00
13661;BME280;6903;49.480;11.102;2023-03-19T03:15:06;97606.69;;;7.40;100.00
13661;BME280;6903;49.480;11.102;2023-03-19T03:17:35;97607.31;;;7.44;100.00
13661;BME280;6903;49.480;11.102;2023-03-19T03:20:00;97604.59;;;7.45;100.00
13661;BME280;6903;49.480;11.102;2023-03-19T03:22:26;97600.19;;;7.46;100.00
13661;BME280;6903;49.480;11.102;2023-03-19T03:24:51;97601.00;;;7.46;100.00
13661;BME280;6903;49.480;11.102;2023-03-19T03:27:16;97597.66;;;7.44;100.00
13661;BME280;6903;49.480;11.102;2023-03-19T03:29:42;97598.59;;;7.43;100.00
13661;BME280;6903;49.480;11.102;2023-03-19T03:32:07;97612.09;;;7.50;100.00
13661;BME280;6903;49.480;11.102;2023-03-19T03:34:32;97605.38;;;7.58;100.00
13661;BME280;6903;49.480;11.102;2023-03-19T03:36:58;97612.91;;;7.63;100.00
13661;BME280;6903;49.480;11.102;2023-03-19T03:39:23;97612.78;;;7.64;100.00
13661;BME280;6903;49.480;11.102;2023-03-19T03:41:48;97611.81;;;7.65;100.00
13661;BME280;6903;49.480;11.102;2023-03-19T03:44:14;97616.13;;;7.66;100.00
13661;BME280;6903;49.480;11.102;2023-03-19T03:46:39;97619.50;;;7.68;100.00
13661;BME280;6903;49.480;11.102;2023-03-19T03:49:04;97616.25;;;7.65;100.00
13661;BME280;6903;49.480;11.102;2023-03-19T03:51:30;97618.03;;;7.64;100.00
13661;BME280;6903;49.480;11.102;2023-03-19T03:53:55;97618.03;;;7.64;100.00
13661;BME280;6903;49.480;11.102;2023-03-19T03:56:20;97623.38;;;7.63;100.00
13661;BME280;6903;49.480;11.102;2023-03-19T03:58:46;97621.63;;;7.63;100.00
13661;BME280;6903;49.480;11.102;2023-03-19T04:01:15;97621.28;;;7.68;100.00
13661;BME280;6903;49.480;11.102;2023-03-19T04:03:41;97628.28;;;7.67;100.00
13661;BME280;6903;49.480;11.102;2023-03-19T04:06:06;97630.81;;;7.69;100.00
13661;BME280;6903;49.480;11.102;2023-03-19T04:08:31;97627.25;;;7.70;100.00
13661;BME280;6903;49.480;11.102;2023-03-19T04:10:57;97625.56;;;7.69;100.00
13661;BME280;6903;49.480;11.102;2023-03-19T04:13:22;97627.94;;;7.72;100.00
13661;BME280;6903;49.480;11.102;2023-03-19T04:15:48;97630.56;;;7.72;100.00
13661;BME280;6903;49.480;11.102;2023-03-19T04:18:13;97632.88;;;7.76;100.00
13661;BME280;6903;49.480;11.102;2023-03-19T04:20:38;97628.47;;;7.77;100.00
13661;BME280;6903;49.480;11.102;2023-03-19T04:23:05;97631.69;;;7.80;100.00
13661;BME280;6903;49.480;11.102;2023-03-19T04:25:31;97629.69;;;7.84;100.00
13661;BME280;6903;49.480;11.102;2023-03-19T04:27:57;97636.25;;;7.89;100.00
13661;BME280;6903;49.480;11.102;2023-03-19T04:30:23;97636.75;;;7.94;100.00
13661;BME280;6903;49.480;11.102;2023-03-19T04:32:48;97642.88;;;7.95;100.00
13661;BME280;6903;49.480;11.102;2023-03-19T04:35:14;97648.13;;;7.95;100.00
13661;BME280;6903;49.480;11.102;2023-03-19T04:37:39;97644.31;;;7.99;100.00
13661;BME280;6903;49.480;11.102;2023-03-19T04:40:06;97647.66;;;8.01;100.00
13661;BME280;6903;49.480;11.102;2023-03-19T04:42:32;97652.91;;;8.01;100.00
13661;BME280;6903;49.480;11.102;2023-03-19T04:44:57;97644.91;;;8.02;100.00
13661;BME280;6903;49.480;11.102;2023-03-19T04:47:22;97647.34;;;8.05;100.00
13661;BME280;6903;49.480;11.102;2023-03-19T04:49:47;97647.22;;;8.07;100.00
13661;BME280;6903;49.480;11.102;2023-03-19T04:52:13;97654.13;;;8.08;100.00
13661;BME280;6903;49.480;11.102;2023-03-19T04:54:38;97648.88;;;8.08;100.00
13661;BME280;6903;49.480;11.102;2023-03-19T04:57:04;97661.03;;;8.09;100.00
13661;BME280;6903;49.480;11.102;2023-03-19T04:59:29;97662.97;;;8.07;100.00
13661;BME280;6903;49.480;11.102;2023-03-19T05:01:55;97662.25;;;8.05;100.00
13661;BME280;6903;49.480;11.102;2023-03-19T05:04:20;97669.28;;;8.04;100.00
13661;BME280;6903;49.480;11.102;2023-03-19T05:06:47;97666.75;;;8.03;100.00
13661;BME280;6903;49.480;11.102;2023-03-19T05:09:12;97666.88;;;8.01;100.00
13661;BME280;6903;49.480;11.102;2023-03-19T05:11:38;97669.63;;;8.00;100.00
13661;BME280;6903;49.480;11.102;2023-03-19T05:14:03;97666.25;;;7.98;100.00
13661;BME280;6903;49.480;11.102;2023-03-19T05:16:28;97663.88;;;7.95;100.00
13661;BME280;6903;49.480;11.102;2023-03-19T05:18:54;97667.69;;;7.91;100.00
13661;BME280;6903;49.480;11.102;2023-03-19T05:21:19;97659.06;;;7.89;100.00
13661;BME280;6903;49.480;11.102;2023-03-19T05:23:44;97666.84;;;7.90;100.00
13661;BME280;6903;49.480;11.102;2023-03-19T05:26:10;97673.84;;;7.90;100.00
13661;BME280;6903;49.480;11.102;2023-03-19T05:28:35;97666.94;;;7.89;100.00
13661;BME280;6903;49.480;11.102;2023-03-19T05:31:03;97672.94;;;7.91;100.00
13661;BME280;6903;49.480;11.102;2023-03-19T05:33:28;97681.38;;;7.94;100.00
13661;BME280;6903;49.480;11.102;2023-03-19T05:35:54;97682.13;;;7.96;100.00
13661;BME280;6903;49.480;11.102;2023-03-19T05:38:19;97685.72;;;7.95;100.00
13661;BME280;6903;49.480;11.102;2023-03-19T05:40:44;97686.63;;;7.94;100.00
13661;BME280;6903;49.480;11.102;2023-03-19T05:43:10;97686.63;;;7.94;100.00
13661;BME280;6903;49.480;11.102;2023-03-19T05:45:36;97695.25;;;7.96;100.00
13661;BME280;6903;49.480;11.102;2023-03-19T05:48:03;97698.84;;;7.95;100.00
13661;BME280;6903;49.480;11.102;2023-03-19T05:50:29;97702.38;;;7.94;100.00
13661;BME280;6903;49.480;11.102;2023-03-19T05:52:55;97704.78;;;7.97;100.00
13661;BME280;6903;49.480;11.102;2023-03-19T05:55:21;97705.53;;;7.99;100.00
13661;BME280;6903;49.480;11.102;2023-03-19T05:57:46;97713.91;;;8.04;100.00
13661;BME280;6903;49.480;11.102;2023-03-19T06:00:12;97722.53;;;8.06;100.00
13661;BME280;6903;49.480;11.102;2023-03-19T06:02:38;97736.97;;;8.12;100.00
13661;BME280;6903;49.480;11.102;2023-03-19T06:05:04;97719.09;;;8.17;100.00
13661;BME280;6903;49.480;11.102;2023-03-19T06:07:30;97733.50;;;8.24;100.00
13661;BME280;6903;49.480;11.102;2023-03-19T06:09:56;97728.97;;;8.26;100.00
13661;BME280;6903;49.480;11.102;2023-03-19T06:12:21;97731.13;;;8.32;100.00
13661;BME280;6903;49.480;11.102;2023-03-19T06:14:47;97737.50;;;8.40;100.00
13661;BME280;6903;49.480;11.102;2023-03-19T06:17:13;97745.03;;;8.45;100.00
13661;BME280;6903;49.480;11.102;2023-03-19T06:19:38;97749.34;;;8.46;100.00
13661;BME280;6903;49.480;11.102;2023-03-19T06:22:03;97751.97;;;8.46;100.00
13661;BME280;6903;49.480;11.102;2023-03-19T06:24:29;97750.19;;;8.46;100.00
13661;BME280;6903;49.480;11.102;2023-03-19T06:26:55;97748.06;;;8.51;100.00
13661;BME280;6903;49.480;11.102;2023-03-19T06:29:20;97750.09;;;8.59;100.00
13661;BME280;6903;49.480;11.102;2023-03-19T06:31:45;97750.72;;;8.63;100.00
13661;BME280;6903;49.480;11.102;2023-03-19T06:34:11;97753.00;;;8.67;100.00
13661;BME280;6903;49.480;11.102;2023-03-19T06:36:36;97746.34;;;8.74;100.00
13661;BME280;6903;49.480;11.102;2023-03-19T06:39:01;97757.94;;;8.83;100.00
13661;BME280;6903;49.480;11.102;2023-03-19T06:41:27;97755.91;;;8.86;100.00
13661;BME280;6903;49.480;11.102;2023-03-19T06:43:52;97760.50;;;8.95;100.00
13661;BME280;6903;49.480;11.102;2023-03-19T06:46:17;97761.56;;;9.04;100.00
13661;BME280;6903;49.480;11.102;2023-03-19T06:48:43;97769.69;;;9.12;100.00
13661;BME280;6903;49.480;11.102;2023-03-19T06:51:08;97764.81;;;9.18;100.00
13661;BME280;6903;49.480;11.102;2023-03-19T06:53:33;97775.47;;;9.28;100.00
13661;BME280;6903;49.480;11.102;2023-03-19T06:55:59;97772.50;;;9.32;100.00
13661;BME280;6903;49.480;11.102;2023-03-19T06:58:24;97782.53;;;9.38;100.00
13661;BME280;6903;49.480;11.102;2023-03-19T07:00:49;97782.91;;;9.45;100.00
13661;BME280;6903;49.480;11.102;2023-03-19T07:03:15;97794.84;;;9.49;100.00
13661;BME280;6903;49.480;11.102;2023-03-19T07:05:40;97800.25;;;9.58;100.00
13661;BME280;6903;49.480;11.102;2023-03-19T07:08:05;97802.78;;;9.71;100.00
13661;BME280;6903;49.480;11.102;2023-03-19T07:10:37;97804.78;;;9.78;100.00
13661;BME280;6903;49.480;11.102;2023-03-19T07:13:03;97807.41;;;9.89;100.00
13661;BME280;6903;49.480;11.102;2023-03-19T07:15:29;97814.72;;;9.97;100.00
13661;BME280;6903;49.480;11.102;2023-03-19T07:17:54;97817.84;;;10.13;100.00
13661;BME280;6903;49.480;11.102;2023-03-19T07:20:21;97826.56;;;10.25;100.00
13661;BME280;6903;49.480;11.102;2023-03-19T07:22:49;97829.06;;;10.37;100.00
13661;BME280;6903;49.480;11.102;2023-03-19T07:25:14;97836.97;;;10.26;100.00
13661;BME280;6903;49.480;11.102;2023-03-19T07:27:40;97835.41;;;10.35;100.00
13661;BME280;6903;49.480;11.102;2023-03-19T07:30:05;97841.16;;;10.40;100.00
13661;BME280;6903;49.480;11.102;2023-03-19T07:32:31;97842.34;;;10.47;100.00
13661;BME280;6903;49.480;11.102;2023-03-19T07:34:56;97844.00;;;10.48;100.00
13661;BME280;6903;49.480;11.102;2023-03-19T07:37:22;97846.03;;;10.44;100.00
13661;BME280;6903;49.480;11.102;2023-03-19T07:39:47;97847.34;;;10.50;100.00
13661;BME280;6903;49.480;11.102;2023-03-19T07:42:12;97856.69;;;10.54;100.00
13661;BME280;6903;49.480;11.102;2023-03-19T07:44:38;97862.41;;;10.59;100.00
13661;BME280;6903;49.480;11.102;2023-03-19T07:47:03;97855.09;;;10.62;100.00
13661;BME280;6903;49.480;11.102;2023-03-19T07:49:28;97860.03;;;10.56;100.00
13661;BME280;6903;49.480;11.102;2023-03-19T07:51:54;97865.91;;;10.59;100.00
13661;BME280;6903;49.480;11.102;2023-03-19T07:54:19;97860.00;;;10.67;100.00
13661;BME280;6903;49.480;11.102;2023-03-19T07:56:45;97859.19;;;10.66;100.00
13661;BME280;6903;49.480;11.102;2023-03-19T07:59:10;97865.50;;;10.75;100.00
13661;BME280;6903;49.480;11.102;2023-03-19T08:01:36;97855.66;;;10.77;100.00
13661;BME280;6903;49.480;11.102;2023-03-19T08:04:01;97865.69;;;10.83;100.00
13661;BME280;6903;49.480;11.102;2023-03-19T08:06:26;97878.38;;;10.89;100.00
13661;BME280;6903;49.480;11.102;2023-03-19T08:08:52;97869.34;;;11.02;100.00
13661;BME280;6903;49.480;11.102;2023-03-19T08:11:17;97877.34;;;11.12;100.00
13661;BME280;6903;49.480;11.102;2023-03-19T08:13:42;97876.34;;;11.24;100.00
13661;BME280;6903;49.480;11.102;2023-03-19T08:16:08;97875.56;;;11.33;100.00
13661;BME280;6903;49.480;11.102;2023-03-19T08:18:34;97880.88;;;11.42;100.00
13661;BME280;6903;49.480;11.102;2023-03-19T08:21:00;97885.31;;;11.42;100.00
13661;BME280;6903;49.480;11.102;2023-03-19T08:23:25;97877.50;;;11.52;100.00
13661;BME280;6903;49.480;11.102;2023-03-19T08:25:51;97884.41;;;11.64;100.00
13661;BME280;6903;49.480;11.102;2023-03-19T08:28:18;97883.59;;;11.73;100.00
13661;BME280;6903;49.480;11.102;2023-03-19T08:30:43;97888.06;;;11.72;100.00
13661;BME280;6903;49.480;11.102;2023-03-19T08:33:08;97888.53;;;11.77;100.00
13661;BME280;6903;49.480;11.102;2023-03-19T08:35:34;97884.78;;;11.80;100.00
13661;BME280;6903;49.480;11.102;2023-03-19T08:37:59;97895.91;;;11.83;100.00
13661;BME280;6903;49.480;11.102;2023-03-19T08:40:24;97903.72;;;11.85;100.00
13661;BME280;6903;49.480;11.102;2023-03-19T08:42:50;97897.84;;;11.81;100.00
13661;BME280;6903;49.480;11.102;2023-03-19T08:45:15;97904.25;;;11.79;100.00
13661;BME280;6903;49.480;11.102;2023-03-19T08:47:42;97908.09;;;11.75;100.00
13661;BME280;6903;49.480;11.102;2023-03-19T08:50:08;97914.50;;;11.72;100.00
13661;BME280;6903;49.480;11.102;2023-03-19T08:52:34;97911.41;;;11.67;100.00
13661;BME280;6903;49.480;11.102;2023-03-19T08:54:59;97917.16;;;11.61;100.00
13661;BME280;6903;49.480;11.102;2023-03-19T08:57:24;97913.22;;;11.56;100.00
13661;BME280;6903;49.480;11.102;2023-03-19T08:59:51;97911.56;;;11.55;100.00
13661;BME280;6903;49.480;11.102;2023-03-19T09:02:17;97926.81;;;11.51;100.00
13661;BME280;6903;49.480;11.102;2023-03-19T09:04:42;97923.47;;;11.49;100.00
13661;BME280;6903;49.480;11.102;2023-03-19T09:07:08;97920.56;;;11.52;100.00
13661;BME280;6903;49.480;11.102;2023-03-19T09:09:38;97923.91;;;11.54;100.00
13661;BME280;6903;49.480;11.102;2023-03-19T09:12:04;97925.72;;;11.54;100.00
13661;BME280;6903;49.480;11.102;2023-03-19T09:14:31;97928.47;;;11.52;100.00
13661;BME280;6903;49.480;11.102;2023-03-19T09:16:56;97937.13;;;11.54;100.00
13661;BME280;6903;49.480;11.102;2023-03-19T09:19:22;97937.00;;;11.56;100.00
13661;BME280;6903;49.480;11.102;2023-03-19T09:21:47;97935.44;;;11.64;100.00
13661;BME280;6903;49.480;11.102;2023-03-19T09:24:13;97937.03;;;11.76;100.00
13661;BME280;6903;49.480;11.102;2023-03-19T09:26:38;97932.38;;;11.89;100.00
13661;BME280;6903;49.480;11.102;2023-03-19T09:29:03;97931.94;;;12.05;100.00
13661;BME280;6903;49.480;11.102;2023-03-19T09:31:29;97933.91;;;12.12;100.00
13661;BME280;6903;49.480;11.102;2023-03-19T09:33:54;97940.03;;;12.13;100.00
13661;BME280;6903;49.480;11.102;2023-03-19T09:36:20;97936.09;;;12.07;100.00
13661;BME280;6903;49.480;11.102;2023-03-19T09:38:45;97941.97;;;12.11;100.00
13661;BME280;6903;49.480;11.102;2023-03-19T09:44:15;97938.47;;;12.10;100.00
13661;BME280;6903;49.480;11.102;2023-03-19T09:46:58;97944.75;;;12.09;100.00
13661;BME280;6903;49.480;11.102;2023-03-19T09:49:57;97941.13;;;12.10;100.00
13661;BME280;6903;49.480;11.102;2023-03-19T09:57:48;97943.09;;;12.18;100.00
13661;BME280;6903;49.480;11.102;2023-03-19T10:00:18;97944.06;;;12.17;100.00
13661;BME280;6903;49.480;11.102;2023-03-19T10:02:44;97948.00;;;12.22;100.00
13661;BME280;6903;49.480;11.102;2023-03-19T10:05:20;97939.41;;;12.30;100.00
13661;BME280;6903;49.480;11.102;2023-03-19T10:10:54;97947.41;;;12.49;100.00
13661;BME280;6903;49.480;11.102;2023-03-19T10:13:34;97947.53;;;12.47;100.00
13661;BME280;6903;49.480;11.102;2023-03-19T10:16:04;97953.38;;;12.41;100.00
13661;BME280;6903;49.480;11.102;2023-03-19T10:18:36;97950.16;;;12.38;100.00
13661;BME280;6903;49.480;11.102;2023-03-19T10:21:15;97951.50;;;12.32;100.00
13661;BME280;6903;49.480;11.102;2023-03-19T10:26:31;97958.63;;;12.32;100.00
13661;BME280;6903;49.480;11.102;2023-03-19T10:29:10;97951.94;;;12.37;100.00
13661;BME280;6903;49.480;11.102;2023-03-19T10:34:18;97955.75;;;12.44;100.00
13661;BME280;6903;49.480;11.102;2023-03-19T10:36:47;97952.97;;;12.46;100.00
13661;BME280;6903;49.480;11.102;2023-03-19T10:39:14;97953.25;;;12.43;100.00
13661;BME280;6903;49.480;11.102;2023-03-19T10:41:49;97950.72;;;12.41;100.00
13661;BME280;6903;49.480;11.102;2023-03-19T10:44:24;97947.34;;;12.30;100.00
13661;BME280;6903;49.480;11.102;2023-03-19T10:46:51;97951.81;;;12.09;100.00
13661;BME280;6903;49.480;11.102;2023-03-19T10:49:16;97955.75;;;11.94;100.00
13661;BME280;6903;49.480;11.102;2023-03-19T10:51:44;97956.03;;;11.91;100.00
13661;BME280;6903;49.480;11.102;2023-03-19T10:54:27;97953.13;;;11.73;100.00
13661;BME280;6903;49.480;11.102;2023-03-19T10:56:58;97950.78;;;11.59;100.00
13661;BME280;6903;49.480;11.102;2023-03-19T10:59:35;97955.88;;;11.51;100.00
13661;BME280;6903;49.480;11.102;2023-03-19T11:02:13;97953.22;;;11.51;100.00
13661;BME280;6903;49.480;11.102;2023-03-19T11:04:39;97945.09;;;11.43;100.00
13661;BME280;6903;49.480;11.102;2023-03-19T11:07:10;97945.56;;;11.48;100.00
13661;BME280;6903;49.480;11.102;2023-03-19T11:09:39;97939.72;;;11.65;100.00
13661;BME280;6903;49.480;11.102;2023-03-19T11:12:24;97935.00;;;11.89;100.00
13661;BME280;6903;49.480;11.102;2023-03-19T11:14:52;97942.50;;;12.05;100.00
13661;BME280;6903;49.480;11.102;2023-03-19T11:17:37;97936.59;;;12.22;100.00
13661;BME280;6903;49.480;11.102;2023-03-19T11:22:53;97932.16;;;12.22;100.00
13661;BME280;6903;49.480;11.102;2023-03-19T11:25:39;97927.72;;;12.32;100.00
13661;BME280;6903;49.480;11.102;2023-03-19T11:28:15;97921.22;;;12.46;100.00
13661;BME280;6903;49.480;11.102;2023-03-19T11:35:43;97910.75;;;12.84;100.00
13661;BME280;6903;49.480;11.102;2023-03-19T11:38:24;97909.38;;;12.99;100.00
13661;BME280;6903;49.480;11.102;2023-03-19T11:46:41;97884.00;;;13.63;100.00
13661;BME280;6903;49.480;11.102;2023-03-19T11:51:45;97878.69;;;14.29;100.00
13661;BME280;6903;49.480;11.102;2023-03-19T11:54:22;97884.63;;;14.67;100.00
13661;BME280;6903;49.480;11.102;2023-03-19T11:57:03;97872.13;;;14.95;100.00
13661;BME280;6903;49.480;11.102;2023-03-19T12:07:36;97848.88;;;14.44;100.00
13661;BME280;6903;49.480;11.102;2023-03-19T12:10:28;97842.97;;;14.68;100.00
13661;BME280;6903;49.480;11.102;2023-03-19T12:13:06;97840.66;;;14.82;100.00
13661;BME280;6903;49.480;11.102;2023-03-19T12:15:54;97828.50;;;14.62;100.00
13661;BME280;6903;49.480;11.102;2023-03-19T12:24:01;97827.44;;;14.73;100.00
13661;BME280;6903;49.480;11.102;2023-03-19T12:26:55;97821.84;;;14.93;100.00
13661;BME280;6903;49.480;11.102;2023-03-19T12:34:53;97818.28;;;15.20;100.00
13661;BME280;6903;49.480;11.102;2023-03-19T12:37:28;97826.69;;;15.15;100.00
13661;BME280;6903;49.480;11.102;2023-03-19T12:40:25;97818.34;;;15.28;100.00
13661;BME280;6903;49.480;11.102;2023-03-19T12:42:55;97828.69;;;15.82;100.00
13661;BME280;6903;49.480;11.102;2023-03-19T12:45:27;97826.91;;;16.58;100.00
13661;BME280;6903;49.480;11.102;2023-03-19T12:48:23;97824.84;;;17.34;100.00
13661;BME280;6903;49.480;11.102;2023-03-19T12:50:53;97825.00;;;17.08;100.00
13661;BME280;6903;49.480;11.102;2023-03-19T12:53:30;97823.69;;;17.28;100.00
13661;BME280;6903;49.480;11.102;2023-03-19T12:56:03;97818.38;;;17.68;100.00
13661;BME280;6903;49.480;11.102;2023-03-19T12:58:45;97820.28;;;17.98;100.00
13661;BME280;6903;49.480;11.102;2023-03-19T13:01:19;97813.31;;;17.89;100.00
13661;BME280;6903;49.480;11.102;2023-03-19T13:04:02;97813.94;;;17.99;100.00
13661;BME280;6903;49.480;11.102;2023-03-19T13:06:34;97809.16;;;18.33;100.00
13661;BME280;6903;49.480;11.102;2023-03-19T13:09:10;97810.25;;;18.55;100.00
13661;BME280;6903;49.480;11.102;2023-03-19T13:17:23;97808.78;;;18.45;100.00
13661;BME280;6903;49.480;11.102;2023-03-19T13:19:51;97808.06;;;18.59;100.00
13661;BME280;6903;49.480;11.102;2023-03-19T13:22:37;97810.25;;;18.86;100.00
13661;BME280;6903;49.480;11.102;2023-03-19T13:25:21;97806.19;;;18.90;100.00
13661;BME280;6903;49.480;11.102;2023-03-19T13:27:52;97808.38;;;18.86;100.00
13661;BME280;6903;49.480;11.102;2023-03-19T13:30:18;97803.66;;;18.96;100.00
13661;BME280;6903;49.480;11.102;2023-03-19T13:33:05;97789.56;;;19.25;100.00
13661;BME280;6903;49.480;11.102;2023-03-19T13:35:44;97795.22;;;19.67;100.00
13661;BME280;6903;49.480;11.102;2023-03-19T13:45:52;97791.91;;;19.05;100.00
13661;BME280;6903;49.480;11.102;2023-03-19T13:51:22;97787.59;;;18.96;100.00
13661;BME280;6903;49.480;11.102;2023-03-19T13:54:19;97786.56;;;19.05;100.00
13661;BME280;6903;49.480;11.102;2023-03-19T13:59:27;97779.00;;;18.64;100.00
13661;BME280;6903;49.480;11.102;2023-03-19T14:01:54;97774.78;;;18.39;100.00
13661;BME280;6903;49.480;11.102;2023-03-19T14:04:33;97773.22;;;18.13;100.00
13661;BME280;6903;49.480;11.102;2023-03-19T14:09:41;97775.75;;;18.07;100.00
13661;BME280;6903;49.480;11.102;2023-03-19T14:14:39;97772.34;;;17.74;100.00
13661;BME280;6903;49.480;11.102;2023-03-19T14:17:14;97770.16;;;17.78;100.00
13661;BME280;6903;49.480;11.102;2023-03-19T14:19:42;97765.50;;;17.80;100.00